Meath Environmental Platform

Observations for Trim Market St

Time AQI Temp °C Hum % Pres Pa CO μg/m³ H₂S μg/m³ NO μg/m³ NO₂ μg/m³ O₃ μg/m³ SO₂ μg/m³ PM1 μg/m³ PM2.5 μg/m³ PM10 μg/m³
Friday 21 August 2026
21:17 2 15.8 62 57,768 0.14 0 2.83 28.14 39.26 0 0.71 4.91 7.53
21:16 2 15.9 62 57,770 0.1 0 2.76 18.21 54.61 0 4.28 6.9 11.57
21:15 2 15.9 62 57,773 0.12 0 1.95 24.11 55.94 0 3.56 5.92 9.55
21:13 2 16 62 57,780 0.14 0 1.68 21.15 68.32 0 1.43 4.93 8.88
21:12 2 16.1 62 57,782 0.12 0 1.54 15.33 59.23 0 2.85 7.43 10.91
21:11 2 16.1 62 57,783 0.13 0 1.49 15.32 53.76 0 2.85 5.44 7.53
21:10 2 16.1 62 57,785 0.12 0 1.5 18.26 50.36 0 2.14 4.45 7.53
21:07 2 16.3 61 57,795 0.01 0 1.31 10.94 74.77 0 1.43 3.46 5.5
21:06 2 16.4 61 57,795 0 0 1.29 12.02 63.67 0 0.71 3.46 5.5
21:05 2 16.4 61 57,796 0 0 1.3 8.19 78.07 0 0.71 1.97 2.78
20:58 3 16.8 61 57,803 0.09 0 2.96 14.77 56.55 0 0 2.49 4.12
20:57 3 16.8 61 57,804 0.19 0 2.81 22.41 50.6 0 0.71 2.99 4.8
20:55 3 16.9 60 57,803 0.07 0 1.53 18.3 57.02 0 0 2 3.43
20:53 3 17.1 60 57,801 0.25 0 1.31 12.71 57.48 0 1.43 3.51 4.79
20:46 3 17.4 60 57,787 0.09 0 1.29 12.03 70.79 0 0.71 2.54 3.4
20:45 3 17.4 60 57,780 0.07 0 1.27 17.95 64.76 0 0.71 2.54 3.4
20:44 3 17.5 60 57,770 0.09 0 1.27 12.1 57.79 0 0 2.55 3.39
20:43 3 17.5 59 57,761 0.08 0 1.28 12.01 59.01 0 0 2.05 2.7
20:42 3 17.6 59 57,748 0.11 0 1.27 12.36 58.6 0 0 2.55 3.39
20:41 3 17.6 59 57,732 0.14 0 1.28 12.57 56.01 0 0 2.56 3.39